ADDS METAR Data INFO
IDs: Format: Raw Decoded Include TAF

Data at: 1150 UTC 23 Jun 2018

KROW 231051Z AUTO 34017KT 10SM CLR 24/08 A2978 RMK AO2 SLP002 T02390078
KROW 230951Z AUTO VRB03KT 10SM CLR 22/12 A2975 RMK AO2 SLP997 T02170117
KROW 230851Z AUTO 19008KT 10SM CLR 23/13 A2973 RMK AO2 SLP987 T02330128 55004
KROW 230751Z AUTO 17011KT 10SM CLR 26/12 A2973 RMK AO2 SLP984 T02610117
KROW 230651Z AUTO 17012KT 10SM CLR 27/08 A2974 RMK AO2 SLP986 T02720078 404280194
KROW 230551Z AUTO 17012KT 10SM CLR 29/05 A2975 RMK AO2 PK WND 18026/0515 SLP989 T02940050 10422 20294 50007
KROW 230451Z AUTO 18015KT 10SM CLR 31/06 A2975 RMK AO2 SLP991 T03110061
KROW 230351Z AUTO 18015KT 10SM CLR 32/07 A2974 RMK AO2 PK WND 17027/0340 SLP989 T03220067
KROW 230251Z AUTO 16013KT 6SM HZ FEW006 34/06 A2972 RMK AO2 SLP983 T03390061 53007
KROW 230151Z 25006KT 10SM CLR 37/M01 A2970 RMK AO2 SLP975 T03671011
KROW 230051Z 28013KT 10SM CLR 41/M02 A2970 RMK AO2 SLP975 T04111022
KROW 222351Z AUTO 25015G30KT 10SM CLR 42/M01 A2970 RMK AO2 PK WND 21031/2330 SLP976 T04221011 10428 20367 56032
KROW 222251Z AUTO 22015G27KT 10SM CLR 41/02 A2971 RMK AO2 PK WND 22028/2232 SLP982 T04060017
KROW 222151Z AUTO 14016G22KT 10SM CLR 39/05 A2976 RMK AO2 PK WND 15031/2108 SLP998 T03940050
KROW 222051Z AUTO 16022G29KT 10SM CLR 39/07 A2980 RMK AO2 PK WND 19034/1952 SLP013 T03940072 56031
KROW 221951Z 18023G33KT 10SM CLR 41/09 A2983 RMK AO2 PK WND 17034/1934 SLP020 T04060089
KROW 221851Z 17018G25KT 10SM CLR 39/09 A2987 RMK AO2 PK WND 16031/1835 SLP035 T03940094
KROW 221751Z 16020G29KT 10SM CLR 37/12 A2990 RMK AO2 PK WND 15030/1733 SLP046 T03670117 10372 20194 58017
KROW 221651Z 17019G25KT 10SM CLR 35/12 A2993 RMK AO2 SLP054 T03500117
KROW 221551Z 17017G25KT 10SM CLR 33/12 A2994 RMK AO2 SLP061 T03280122
KROW 221451Z 16013KT 10SM CLR 30/13 A2996 RMK AO2 SLP067 T03000128 53005
KROW 221351Z 17010KT 10SM CLR 28/12 A2995 RMK AO2 SLP064 T02830122
KROW 221251Z 18007KT 10SM CLR 23/12 A2994 RMK AO2 SLP065 T02330122
KROW 221151Z 18005KT 10SM CLR 20/12 A2995 RMK AO2 SLP069 T02000122 10272 20200 53001
KROW 221051Z 19005KT 10SM CLR 21/12 A2994 RMK AO2 SLP065 T02110122
KROW 220951Z 19006KT 10SM CLR 22/12 A2994 RMK AO2 SLP065 T02170122
KROW 220851Z 19006KT 10SM CLR 22/13 A2994 RMK AO2 SLP066 T02220128 56013
KROW 220751Z 20006KT 10SM CLR 24/13 A2996 RMK AO2 SLP070 T02390128
KROW 220651Z 19006KT 10SM CLR 24/13 A2997 RMK AO2 SLP075 T02390133 403670217
KROW 220551Z 18006KT 10SM CLR 27/13 A2999 RMK AO2 SLP079 T02720133 10344 20272 51005
KROW 220451Z 17009KT 10SM CLR 29/13 A2999 RMK AO2 SLP078 T02890133
KROW 220351Z 17011KT 10SM CLR 30/13 A2998 RMK AO2 SLP077 T03000133
KROW 220251Z 18008KT 10SM CLR 32/12 A2997 RMK AO2 SLP075 T03170117 53003
KROW 220151Z 17014KT 10SM CLR 34/12 A2996 RMK AO2 SLP071 T03390117
KROW 220051Z 16013KT 10SM CLR 34/12 A2996 RMK AO2 SLP071 T03390122
KROW 212351Z 15011KT 10SM CLR 34/12 A2996 RMK AO2 LTG DSNT NW SLP073 T03440122 10367 20311 56017